Bloomfield, NM (87413)

5:26 AM MST on December 25, 2014 (GMT -0700)
Crouch Mesa | Change Station
CLOSE
Current Station
Personal Weather Station
Location: Aztec, NM
Elevation: 5876 ft
Nearby Weather Stations

Elev 5876 ft 36.77 °N, 108.06 °W | Updated 14 seconds ago

Overcast
Overcast
30.2 °F
Feels Like 25 °F
N
4.5
Wind Variable Wind from North
Gusts 5.4 mph

Today
High -- | Low -- °F
--% Chance of Precip.
Yesterday
High -- | Low -- °F
Precip. -- in
7:22 AM 5:01 PM
Waxing Crescent, 16% visible
Pressure 29.66 in
Visibility 10.0 miles
Clouds Scattered Clouds 8000 ft
Overcast 11000 ft
Windchill 25 °F
Dew Point 14 °F
Humidity 50%
Rainfall 0.00 in
Snow Depth Not available.
UV 0 out of 12
Pollen .40 out of 12
Air Quality Not available.
Flu Activity Not available.
METAR KFMN 251153Z AUTO 10006KT 10SM SCT080 OVC110 M01/M11 A2962 RMK AO2 SLP044 T10111106 10000 21017 58019

More Conditions Fewer Conditions

Pressure 29.66 in
Visibility 10.0 miles
Clouds Scattered Clouds 8000 ft
Overcast 11000 ft
Windchill 25 °F
Dew Point 14 °F
Humidity 50%
Rainfall 0.00 in
Snow Depth Not available.
UV 0 out of 12
Pollen .40 out of 12
Air Quality Not available.
Flu Activity Not available.
METAR KFMN 251153Z AUTO 10006KT 10SM SCT080 OVC110 M01/M11 A2962 RMK AO2 SLP044 T10111106 10000 21017 58019

More Conditions Fewer Conditions

10-Day Weather Forecast

Almanac

Astronomy

Dec. 25, 2014 Rise Set
Actual Time
Civil Twilight
Nautical Twilight
Astronomical Twilight
Moon
Length of Visible Light
Length of Day
Tomorrow will be .
, % of the Moon is Illuminated

Today's Extremes

State Highs State Lows

Community

WunderPhotos

Upload Photos

1,780,266 photos uploaded!

WunderBlogs® & News

Nearby

Air Quality

  Air Quality AQ Index Pollutant
Not available.

Snow Depth

Station Depth Elevation

Earthquake Activity

City Distance Mag. Time & Date
Minimum magnitude displayed is 2.5.

Coastal Water Temperatures

Place Temperature

Nearby Weather Stations